createdAt,value
2019-01-04T00:00:01.117Z,27.05
2019-01-04T00:01:06.668Z,27.00
2019-01-04T00:01:45.131Z,27.02
2019-01-04T00:02:21.840Z,27.03
2019-01-04T00:02:58.591Z,27.04
2019-01-04T00:03:35.576Z,27.05
2019-01-04T00:04:16.952Z,27.06
2019-01-04T00:04:53.184Z,27.07
2019-01-04T00:05:29.846Z,27.08
2019-01-04T00:06:06.461Z,27.04
2019-01-04T00:06:43.291Z,27.02
2019-01-04T00:07:19.882Z,27.05
2019-01-04T00:07:56.804Z,27.06
2019-01-04T00:08:33.150Z,27.08
2019-01-04T00:09:09.304Z,27.10
2019-01-04T00:09:45.545Z,27.14
2019-01-04T00:10:21.703Z,27.18
2019-01-04T00:10:57.936Z,27.18
2019-01-04T00:11:34.186Z,27.18
2019-01-04T00:12:10.549Z,27.20
2019-01-04T00:12:46.794Z,27.22
2019-01-04T00:13:23.076Z,27.20
2019-01-04T00:14:01.028Z,27.20
2019-01-04T00:14:37.727Z,27.23
2019-01-04T00:15:13.992Z,27.21
2019-01-04T00:15:50.098Z,27.24
2019-01-04T00:16:26.361Z,27.25
2019-01-04T00:17:03.215Z,27.24
2019-01-04T00:17:39.679Z,27.27
2019-01-04T00:18:16.462Z,27.29
2019-01-04T00:18:53.214Z,27.32
2019-01-04T00:19:29.913Z,27.33
2019-01-04T00:20:06.638Z,27.34
2019-01-04T00:20:43.364Z,27.35
2019-01-04T00:21:20.134Z,27.34
2019-01-04T00:21:56.914Z,27.35
2019-01-04T00:22:33.020Z,27.36
2019-01-04T00:23:09.741Z,27.38
2019-01-04T00:23:46.531Z,27.39
2019-01-04T00:24:23.400Z,27.41
2019-01-04T00:25:00.235Z,27.43
2019-01-04T00:25:36.491Z,27.44
2019-01-04T00:26:12.973Z,27.45
2019-01-04T00:26:49.784Z,27.42
2019-01-04T00:27:26.508Z,27.36
2019-01-04T00:28:03.286Z,27.37
2019-01-04T00:28:40.099Z,27.42
2019-01-04T00:29:16.663Z,27.43
2019-01-04T00:29:53.541Z,27.44
2019-01-04T00:30:30.448Z,27.44
2019-01-04T00:31:07.568Z,27.41
2019-01-04T00:31:43.943Z,27.40
2019-01-04T00:32:20.685Z,27.42
2019-01-04T00:32:57.311Z,27.43
2019-01-04T00:33:34.128Z,27.47
2019-01-04T00:34:11.003Z,27.49
2019-01-04T00:34:47.634Z,27.48
2019-01-04T00:35:24.364Z,27.51
2019-01-04T00:36:00.926Z,27.54
2019-01-04T00:36:38.107Z,27.57
2019-01-04T00:37:15.022Z,27.58
2019-01-04T00:37:51.925Z,27.58
2019-01-04T00:38:28.607Z,27.57
2019-01-04T00:39:07.152Z,27.55
2019-01-04T00:39:43.914Z,27.59
2019-01-04T00:40:20.179Z,27.59
2019-01-04T00:40:56.905Z,27.62
2019-01-04T00:41:35.033Z,27.64
2019-01-04T00:42:11.362Z,27.65
2019-01-04T00:42:47.417Z,27.67
2019-01-04T00:43:23.476Z,27.68
2019-01-04T00:43:59.483Z,27.71
2019-01-04T00:44:38.635Z,27.74
2019-01-04T00:45:14.780Z,27.74
2019-01-04T00:45:51.498Z,27.75
2019-01-04T00:46:28.260Z,27.78
2019-01-04T00:47:05.066Z,27.79
2019-01-04T00:47:41.464Z,27.81
2019-01-04T00:48:17.738Z,27.79
2019-01-04T00:48:55.512Z,27.82
2019-01-04T00:49:32.372Z,27.80
2019-01-04T00:50:09.334Z,27.80
2019-01-04T00:50:45.899Z,27.85
2019-01-04T00:51:23.164Z,27.87
2019-01-04T00:51:59.812Z,27.89
2019-01-04T00:52:36.338Z,27.91
2019-01-04T00:53:13.349Z,27.92
2019-01-04T00:53:50.115Z,27.93
2019-01-04T00:54:27.012Z,27.96
2019-01-04T00:55:14.823Z,27.97
2019-01-04T00:56:33.148Z,28.00
2019-01-04T00:57:32.521Z,28.01
2019-01-04T00:58:44.109Z,28.01
2019-01-04T00:59:57.544Z,28.04
2019-01-04T01:01:33.004Z,28.03
2019-01-04T01:02:43.036Z,27.98
2019-01-04T01:04:13.404Z,28.01
2019-01-04T01:05:43.530Z,28.02
2019-01-04T01:06:57.703Z,28.03
2019-01-04T01:08:12.347Z,28.06
2019-01-04T01:09:24.557Z,28.08
2019-01-04T01:10:35.722Z,28.11
2019-01-04T01:11:51.137Z,28.13
2019-01-04T01:13:13.270Z,28.14
2019-01-04T01:14:54.189Z,28.15
2019-01-04T01:16:09.295Z,28.16
2019-01-04T01:17:38.230Z,28.17
2019-01-04T01:19:16.186Z,28.23
2019-01-04T01:20:17.002Z,28.26
2019-01-04T01:21:17.682Z,28.27
2019-01-04T01:22:35.554Z,28.28
2019-01-04T01:23:52.368Z,28.31
2019-01-04T01:25:11.039Z,28.38
2019-01-04T01:26:23.845Z,28.36
2019-01-04T01:27:33.735Z,28.43
2019-01-04T01:29:08.560Z,28.45
2019-01-04T01:30:29.605Z,28.47
2019-01-04T01:31:39.231Z,28.54
2019-01-04T01:33:03.533Z,28.56
2019-01-04T01:34:13.959Z,28.62
2019-01-04T01:35:32.020Z,28.67
2019-01-04T01:36:27.775Z,28.69
2019-01-04T01:37:51.449Z,28.74
2019-01-04T01:39:02.601Z,28.77
2019-01-04T01:40:49.191Z,28.79
2019-01-04T01:42:01.172Z,28.77
2019-01-04T01:43:24.941Z,28.83
2019-01-04T01:44:32.935Z,28.85
2019-01-04T01:46:03.696Z,28.84
2019-01-04T01:47:06.587Z,28.86
2019-01-04T01:47:50.489Z,28.87
2019-01-04T01:48:53.302Z,28.82
2019-01-04T01:49:58.461Z,28.81
2019-01-04T01:51:14.345Z,28.84
2019-01-04T01:52:02.468Z,28.84
2019-01-04T01:52:43.547Z,28.88
2019-01-04T01:53:19.591Z,28.90
2019-01-04T01:53:55.954Z,28.90
2019-01-04T01:54:32.208Z,28.89
2019-01-04T01:55:09.944Z,28.90
2019-01-04T01:55:46.258Z,28.92
2019-01-04T01:56:22.732Z,28.91
2019-01-04T01:56:58.908Z,28.90
2019-01-04T01:57:35.128Z,28.92
2019-01-04T01:58:11.241Z,28.93
2019-01-04T01:58:47.881Z,28.94
2019-01-04T01:59:24.115Z,28.95
2019-01-04T02:00:05.316Z,28.97
2019-01-04T02:00:41.706Z,28.98
2019-01-04T02:01:18.123Z,29.00
2019-01-04T02:01:57.886Z,28.99
2019-01-04T02:02:36.324Z,29.02
2019-01-04T02:03:12.473Z,29.01
2019-01-04T02:03:48.726Z,29.02
2019-01-04T02:04:25.057Z,29.03
2019-01-04T02:05:01.232Z,29.01
2019-01-04T02:05:37.332Z,29.03
2019-01-04T02:06:13.576Z,29.03
2019-01-04T02:06:49.683Z,29.03
2019-01-04T02:07:25.990Z,29.04
2019-01-04T02:08:02.091Z,29.00
2019-01-04T02:08:38.132Z,29.03
2019-01-04T02:09:14.627Z,29.02
2019-01-04T02:09:50.807Z,29.03
2019-01-04T02:10:27.220Z,29.03
2019-01-04T02:11:03.350Z,29.03
2019-01-04T02:11:41.232Z,29.03
2019-01-04T02:12:18.920Z,29.03
2019-01-04T02:12:55.180Z,29.01
2019-01-04T02:13:31.482Z,28.98
2019-01-04T02:14:07.592Z,28.95
2019-01-04T02:14:43.912Z,28.95
2019-01-04T02:15:20.190Z,28.96
2019-01-04T02:15:56.796Z,28.94
2019-01-04T02:16:34.501Z,28.95
2019-01-04T02:17:12.160Z,28.95
2019-01-04T02:17:48.807Z,28.93
2019-01-04T02:18:26.810Z,28.93
2019-01-04T02:19:02.927Z,28.93
2019-01-04T02:19:39.189Z,28.92
2019-01-04T02:20:15.315Z,28.91
2019-01-04T02:20:51.722Z,28.89
2019-01-04T02:21:28.087Z,28.89
2019-01-04T02:22:04.572Z,28.89
2019-01-04T02:22:40.591Z,28.88
2019-01-04T02:23:16.801Z,28.89
2019-01-04T02:23:53.216Z,28.90
2019-01-04T02:24:29.495Z,28.89
2019-01-04T02:25:05.894Z,28.89
2019-01-04T02:25:42.218Z,28.88
2019-01-04T02:26:18.656Z,28.89
2019-01-04T02:26:55.251Z,28.89
2019-01-04T02:27:33.091Z,28.89
2019-01-04T02:28:09.338Z,28.90
2019-01-04T02:28:45.616Z,28.91
2019-01-04T02:29:21.869Z,28.92
2019-01-04T02:30:01.196Z,28.92
2019-01-04T02:30:37.425Z,28.93
2019-01-04T02:31:13.805Z,28.93
2019-01-04T02:31:50.045Z,28.94
2019-01-04T02:32:27.921Z,28.94
2019-01-04T02:33:04.214Z,28.95
2019-01-04T02:33:40.724Z,28.96
2019-01-04T02:34:19.624Z,28.98
2019-01-04T02:34:55.855Z,29.00
2019-01-04T02:35:33.740Z,28.99
2019-01-04T02:36:09.959Z,28.99
2019-01-04T02:36:46.272Z,28.96
2019-01-04T02:37:22.570Z,28.96
2019-01-04T02:37:58.974Z,28.96
2019-01-04T02:38:35.187Z,28.93
2019-01-04T02:39:13.168Z,28.93
2019-01-04T02:39:49.299Z,28.93
2019-01-04T02:40:27.125Z,28.91
2019-01-04T02:41:04.925Z,28.90
2019-01-04T02:41:42.682Z,28.90
2019-01-04T02:42:18.940Z,28.91
2019-01-04T02:42:55.463Z,28.92
2019-01-04T02:43:32.228Z,28.93
2019-01-04T02:44:08.457Z,28.95
2019-01-04T02:44:44.862Z,28.98
2019-01-04T02:45:21.022Z,28.98
2019-01-04T02:45:57.173Z,28.95
2019-01-04T02:46:33.323Z,28.96
2019-01-04T02:47:09.685Z,28.99
2019-01-04T02:47:45.766Z,29.00
2019-01-04T02:48:22.229Z,29.01
2019-01-04T02:48:58.519Z,29.00
2019-01-04T02:49:34.730Z,28.96
2019-01-04T02:50:10.823Z,28.96
2019-01-04T02:50:46.794Z,28.98
2019-01-04T02:51:22.905Z,28.98
2019-01-04T02:51:59.224Z,28.99
2019-01-04T02:52:35.357Z,28.98
2019-01-04T02:53:11.460Z,28.96
2019-01-04T02:53:47.904Z,28.95
2019-01-04T02:54:24.263Z,28.95
2019-01-04T02:55:00.466Z,28.95
2019-01-04T02:55:36.626Z,28.94
2019-01-04T02:56:12.807Z,28.94
2019-01-04T02:56:48.927Z,28.91
2019-01-04T02:57:25.200Z,28.94
2019-01-04T02:58:02.814Z,28.90
2019-01-04T02:58:39.042Z,28.94
2019-01-04T02:59:15.307Z,28.92
2019-01-04T02:59:52.957Z,28.96
2019-01-04T03:00:29.202Z,28.99
2019-01-04T03:01:05.610Z,29.00
2019-01-04T03:01:41.816Z,28.99
2019-01-04T03:02:18.092Z,29.00
2019-01-04T03:02:54.363Z,29.02
2019-01-04T03:03:30.518Z,29.04
2019-01-04T03:04:06.611Z,29.07
2019-01-04T03:04:42.701Z,29.10
2019-01-04T03:05:18.800Z,29.13
2019-01-04T03:05:55.012Z,29.16
2019-01-04T03:06:31.306Z,29.19
2019-01-04T03:07:07.436Z,29.21
2019-01-04T03:07:44.021Z,29.21
2019-01-04T03:08:20.254Z,29.23
2019-01-04T03:08:56.362Z,29.21
2019-01-04T03:09:32.673Z,29.22
2019-01-04T03:10:09.101Z,29.25
2019-01-04T03:10:45.217Z,29.28
2019-01-04T03:11:21.419Z,29.26
2019-01-04T03:11:57.501Z,29.20
2019-01-04T03:12:33.771Z,29.19
2019-01-04T03:13:10.031Z,29.21
2019-01-04T03:13:46.310Z,29.18
2019-01-04T03:14:22.718Z,29.15
2019-01-04T03:14:59.245Z,29.17
2019-01-04T03:15:37.133Z,29.19
2019-01-04T03:16:13.470Z,29.21
2019-01-04T03:16:49.799Z,29.21
2019-01-04T03:17:25.960Z,29.23
2019-01-04T03:18:02.203Z,29.27
2019-01-04T03:18:38.336Z,29.30
2019-01-04T03:19:14.733Z,29.32
2019-01-04T03:19:50.837Z,29.37
2019-01-04T03:20:27.006Z,29.40
2019-01-04T03:21:03.356Z,29.43
2019-01-04T03:21:39.745Z,29.46
2019-01-04T03:22:16.049Z,29.51
2019-01-04T03:22:52.246Z,29.53
2019-01-04T03:23:28.633Z,29.58
2019-01-04T03:24:04.803Z,29.62
2019-01-04T03:24:41.346Z,29.65
2019-01-04T03:25:17.586Z,29.69
2019-01-04T03:25:53.867Z,29.71
2019-01-04T03:26:30.027Z,29.75
2019-01-04T03:27:06.401Z,29.78
2019-01-04T03:27:42.496Z,29.79
2019-01-04T03:28:18.713Z,29.83
2019-01-04T03:28:54.892Z,29.88
2019-01-04T03:29:32.959Z,29.92
2019-01-04T03:30:10.707Z,29.97
2019-01-04T03:30:46.870Z,29.99
2019-01-04T03:31:22.938Z,30.01
2019-01-04T03:31:59.158Z,30.03
2019-01-04T03:32:35.410Z,30.00
2019-01-04T03:33:11.732Z,29.98
2019-01-04T03:33:48.036Z,30.07
2019-01-04T03:34:24.310Z,30.14
2019-01-04T03:35:00.352Z,30.14
2019-01-04T03:35:36.777Z,30.12
2019-01-04T03:36:12.900Z,30.14
2019-01-04T03:36:49.133Z,30.29
2019-01-04T03:37:25.273Z,30.40
2019-01-04T03:38:01.553Z,30.49
2019-01-04T03:38:37.828Z,30.63
2019-01-04T03:39:13.945Z,30.63
2019-01-04T03:39:50.365Z,30.66
2019-01-04T03:40:26.458Z,30.60
2019-01-04T03:41:02.775Z,30.60
2019-01-04T03:41:39.068Z,30.70
2019-01-04T03:42:15.202Z,30.98
2019-01-04T03:42:51.750Z,31.06
2019-01-04T03:43:28.041Z,31.06
2019-01-04T03:44:04.332Z,31.20
2019-01-04T03:44:40.663Z,31.18
2019-01-04T03:45:16.937Z,31.18
2019-01-04T03:45:53.122Z,31.07
2019-01-04T03:46:29.237Z,31.04
2019-01-04T03:47:05.758Z,31.00
2019-01-04T03:47:42.107Z,31.05
2019-01-04T03:48:18.229Z,31.04
2019-01-04T03:48:54.710Z,31.05
2019-01-04T03:49:31.124Z,31.19
2019-01-04T03:50:07.667Z,31.19
2019-01-04T03:50:44.097Z,31.25
2019-01-04T03:51:20.489Z,31.23
2019-01-04T03:51:56.783Z,31.23
2019-01-04T03:52:33.048Z,31.16
2019-01-04T03:53:09.143Z,31.12
2019-01-04T03:53:45.202Z,31.02
2019-01-04T03:54:21.735Z,30.98
2019-01-04T03:54:58.283Z,30.90
2019-01-04T03:55:34.415Z,30.90
2019-01-04T03:56:10.762Z,30.90
2019-01-04T03:56:46.932Z,30.80
2019-01-04T03:57:23.170Z,30.74
2019-01-04T03:57:59.643Z,30.97
2019-01-04T03:58:36.059Z,31.00
2019-01-04T03:59:12.401Z,31.00
2019-01-04T03:59:48.700Z,31.02
2019-01-04T04:00:25.017Z,31.02
2019-01-04T04:01:01.347Z,31.04
2019-01-04T04:01:37.597Z,31.04
2019-01-04T04:02:13.956Z,31.09
2019-01-04T04:02:50.446Z,31.24
2019-01-04T04:03:26.743Z,31.24
2019-01-04T04:04:03.026Z,31.33
2019-01-04T04:04:39.221Z,31.33
2019-01-04T04:05:15.652Z,31.33
2019-01-04T04:05:51.961Z,31.35
2019-01-04T04:06:28.349Z,31.37
2019-01-04T04:07:04.564Z,31.35
2019-01-04T04:07:40.623Z,31.42
2019-01-04T04:08:17.000Z,31.28
2019-01-04T04:08:53.160Z,31.28
2019-01-04T04:09:29.371Z,31.30
2019-01-04T04:10:05.803Z,31.36
2019-01-04T04:10:41.967Z,31.48
2019-01-04T04:11:18.280Z,31.45
2019-01-04T04:11:54.420Z,31.37
2019-01-04T04:12:32.379Z,31.35
2019-01-04T04:13:08.545Z,31.35
2019-01-04T04:13:44.859Z,31.25
2019-01-04T04:14:21.614Z,31.24
2019-01-04T04:14:57.953Z,31.22
2019-01-04T04:15:34.611Z,31.19
2019-01-04T04:16:10.858Z,31.19
2019-01-04T04:16:48.649Z,31.10
2019-01-04T04:17:24.797Z,31.10
2019-01-04T04:18:01.135Z,31.15
2019-01-04T04:18:37.164Z,31.11
2019-01-04T04:19:13.332Z,31.03
2019-01-04T04:19:49.671Z,31.09
2019-01-04T04:20:25.848Z,31.09
2019-01-04T04:21:03.566Z,30.98
2019-01-04T04:21:39.751Z,30.91
2019-01-04T04:22:16.101Z,30.82
2019-01-04T04:22:54.634Z,30.77
2019-01-04T04:23:30.968Z,30.77
2019-01-04T04:24:07.208Z,30.59
2019-01-04T04:24:43.578Z,30.48
2019-01-04T04:25:19.896Z,30.48
2019-01-04T04:25:57.193Z,30.36
2019-01-04T04:26:33.800Z,30.18
2019-01-04T04:27:10.031Z,30.18
2019-01-04T04:27:46.183Z,30.12
2019-01-04T04:28:22.708Z,29.98
2019-01-04T04:28:58.892Z,29.95
2019-01-04T04:29:35.418Z,29.95
2019-01-04T04:30:11.734Z,29.99
2019-01-04T04:30:48.028Z,30.00
2019-01-04T04:31:24.333Z,30.00
2019-01-04T04:32:00.762Z,30.03
2019-01-04T04:32:37.129Z,30.03
2019-01-04T04:33:13.673Z,30.03
2019-01-04T04:33:50.055Z,30.04
2019-01-04T04:34:26.356Z,30.05
2019-01-04T04:35:02.552Z,30.00
2019-01-04T04:35:38.754Z,30.04
2019-01-04T04:36:14.902Z,30.04
2019-01-04T04:36:51.025Z,30.02
2019-01-04T04:37:27.493Z,30.00
2019-01-04T04:38:03.629Z,30.00
2019-01-04T04:38:39.845Z,29.98
2019-01-04T04:39:15.967Z,29.99
2019-01-04T04:39:52.081Z,29.99
2019-01-04T04:40:30.804Z,30.02
2019-01-04T04:41:07.020Z,30.06
2019-01-04T04:41:43.156Z,30.07
2019-01-04T04:42:19.605Z,30.07
2019-01-04T04:42:55.902Z,30.11
2019-01-04T04:43:32.529Z,30.21
2019-01-04T04:44:08.726Z,30.21
2019-01-04T04:44:44.823Z,30.26
2019-01-04T04:45:21.286Z,30.37
2019-01-04T04:45:57.391Z,30.37
2019-01-04T04:46:33.727Z,30.42
2019-01-04T04:47:09.857Z,30.43
2019-01-04T04:47:47.764Z,30.44
2019-01-04T04:48:24.061Z,30.45
2019-01-04T04:49:00.194Z,30.45
2019-01-04T04:49:36.712Z,30.45
2019-01-04T04:50:14.469Z,30.46
2019-01-04T04:50:50.967Z,30.59
2019-01-04T04:51:27.267Z,30.59
2019-01-04T04:52:03.413Z,30.71
2019-01-04T04:52:39.577Z,30.95
2019-01-04T04:53:15.683Z,31.10
2019-01-04T04:53:52.004Z,31.10
2019-01-04T04:54:28.171Z,31.15
2019-01-04T04:55:04.298Z,31.15
2019-01-04T04:55:40.477Z,31.20
2019-01-04T04:56:16.606Z,31.23
2019-01-04T04:56:52.734Z,31.36
2019-01-04T04:57:28.978Z,31.51
2019-01-04T04:58:05.115Z,31.66
2019-01-04T04:58:42.760Z,31.81
2019-01-04T04:59:18.965Z,31.92
2019-01-04T04:59:55.378Z,31.97
2019-01-04T05:00:33.094Z,32.05
2019-01-04T05:01:09.476Z,32.05
2019-01-04T05:01:45.961Z,32.16
2019-01-04T05:02:22.272Z,32.24
2019-01-04T05:02:58.419Z,32.25
2019-01-04T05:03:34.579Z,32.22
2019-01-04T05:04:10.843Z,32.23
2019-01-04T05:04:47.347Z,32.18
2019-01-04T05:05:23.742Z,32.08
2019-01-04T05:05:59.845Z,32.00
2019-01-04T05:06:36.297Z,31.88
2019-01-04T05:07:12.396Z,31.86
2019-01-04T05:07:49.455Z,31.85
2019-01-04T05:08:25.525Z,31.79
2019-01-04T05:09:01.684Z,31.68
2019-01-04T05:09:38.061Z,31.69
2019-01-04T05:10:14.313Z,31.69
2019-01-04T05:10:50.635Z,31.67
2019-01-04T05:11:26.973Z,31.64
2019-01-04T05:12:03.126Z,31.62
2019-01-04T05:12:39.546Z,31.52
2019-01-04T05:13:15.898Z,31.61
2019-01-04T05:13:52.277Z,31.68
2019-01-04T05:14:28.765Z,31.68
2019-01-04T05:15:04.915Z,31.69
2019-01-04T05:15:41.134Z,31.76
2019-01-04T05:16:17.351Z,31.79
2019-01-04T05:16:53.585Z,31.76
2019-01-04T05:17:30.062Z,31.64
2019-01-04T05:18:06.403Z,31.68
2019-01-04T05:18:42.617Z,31.68
2019-01-04T05:19:18.894Z,31.78
2019-01-04T05:19:55.198Z,31.83
2019-01-04T05:20:31.287Z,31.85
2019-01-04T05:21:07.571Z,31.83
2019-01-04T05:21:43.839Z,31.81
2019-01-04T05:22:20.502Z,31.78
2019-01-04T05:22:56.751Z,31.81
2019-01-04T05:23:32.943Z,31.87
2019-01-04T05:24:09.246Z,31.89
2019-01-04T05:24:45.336Z,31.84
2019-01-04T05:25:21.614Z,31.81
2019-01-04T05:25:59.230Z,31.79
2019-01-04T05:26:35.546Z,31.72
2019-01-04T05:27:11.645Z,31.71
2019-01-04T05:27:47.772Z,31.79
2019-01-04T05:28:24.092Z,31.91
2019-01-04T05:29:00.424Z,31.88
2019-01-04T05:29:36.784Z,31.85
2019-01-04T05:30:13.267Z,31.80
2019-01-04T05:30:49.430Z,31.73
2019-01-04T05:31:25.784Z,31.78
2019-01-04T05:32:01.933Z,31.81
2019-01-04T05:32:38.159Z,31.88
2019-01-04T05:33:14.270Z,31.88
2019-01-04T05:33:50.874Z,31.93
2019-01-04T05:34:26.946Z,31.96
2019-01-04T05:35:03.128Z,31.97
2019-01-04T05:35:39.352Z,31.96
2019-01-04T05:36:15.692Z,32.04
2019-01-04T05:36:51.947Z,32.08
2019-01-04T05:37:28.150Z,32.06
2019-01-04T05:38:04.440Z,32.07
2019-01-04T05:38:40.547Z,32.11
2019-01-04T05:39:16.941Z,32.09
2019-01-04T05:39:53.247Z,31.96
2019-01-04T05:40:29.700Z,31.98
2019-01-04T05:41:06.027Z,31.95
2019-01-04T05:41:43.442Z,31.84
2019-01-04T05:42:19.548Z,31.84
2019-01-04T05:42:55.749Z,31.89
2019-01-04T05:43:31.910Z,31.95
2019-01-04T05:44:08.217Z,31.98
2019-01-04T05:44:44.645Z,32.03
2019-01-04T05:45:20.832Z,32.08
2019-01-04T05:45:57.104Z,32.14
2019-01-04T05:46:33.404Z,32.20
2019-01-04T05:47:09.732Z,32.26
2019-01-04T05:47:46.041Z,32.26
2019-01-04T05:48:23.859Z,32.31
2019-01-04T05:49:00.145Z,32.34
2019-01-04T05:49:37.865Z,32.40
2019-01-04T05:50:14.116Z,32.39
2019-01-04T05:50:50.276Z,32.31
2019-01-04T05:51:26.433Z,32.30
2019-01-04T05:52:02.770Z,32.33
2019-01-04T05:52:38.863Z,32.39
2019-01-04T05:53:15.274Z,32.41
2019-01-04T05:53:51.799Z,32.34
2019-01-04T05:54:28.239Z,32.24
2019-01-04T05:55:05.830Z,32.24
2019-01-04T05:55:42.116Z,32.31
2019-01-04T05:56:18.779Z,32.32
2019-01-04T05:56:54.923Z,32.26
2019-01-04T05:57:31.373Z,32.23
2019-01-04T05:58:07.486Z,32.22
2019-01-04T05:58:45.156Z,32.22
2019-01-04T05:59:21.324Z,32.19
2019-01-04T05:59:57.511Z,32.17
2019-01-04T06:00:33.839Z,32.21
2019-01-04T06:01:09.952Z,32.19
2019-01-04T06:01:46.154Z,32.19
2019-01-04T06:02:22.290Z,32.13
2019-01-04T06:02:58.495Z,32.06
2019-01-04T06:03:34.797Z,31.99
2019-01-04T06:04:10.937Z,31.99
2019-01-04T06:04:47.423Z,31.95
2019-01-04T06:05:23.884Z,31.90
2019-01-04T06:06:00.182Z,31.91
2019-01-04T06:06:36.777Z,31.87
2019-01-04T06:07:12.891Z,31.75
2019-01-04T06:07:49.197Z,31.75
2019-01-04T06:08:25.454Z,31.69
2019-01-04T06:09:01.760Z,31.69
2019-01-04T06:09:37.982Z,31.73
2019-01-04T06:10:14.287Z,31.72
2019-01-04T06:10:50.545Z,31.72
2019-01-04T06:11:26.651Z,31.71
2019-01-04T06:12:02.891Z,31.74
2019-01-04T06:12:39.073Z,31.68
2019-01-04T06:13:15.238Z,31.68
2019-01-04T06:13:51.646Z,31.67
2019-01-04T06:14:28.003Z,31.63
2019-01-04T06:15:04.390Z,31.65
2019-01-04T06:15:40.548Z,31.65
2019-01-04T06:16:16.859Z,31.65
2019-01-04T06:16:53.019Z,31.65
2019-01-04T06:17:29.224Z,31.62
2019-01-04T06:18:05.722Z,31.63
2019-01-04T06:18:41.917Z,31.58
2019-01-04T06:19:19.776Z,31.57
2019-01-04T06:19:55.916Z,31.56
2019-01-04T06:20:32.017Z,31.53
2019-01-04T06:21:08.240Z,31.51
2019-01-04T06:21:44.630Z,31.47
2019-01-04T06:22:20.768Z,31.47
2019-01-04T06:22:56.878Z,31.33
2019-01-04T06:23:33.183Z,31.31
2019-01-04T06:24:09.620Z,31.31
2019-01-04T06:24:46.136Z,31.28
2019-01-04T06:25:22.277Z,31.26
2019-01-04T06:25:58.723Z,31.18
2019-01-04T06:26:34.840Z,31.18
2019-01-04T06:27:12.507Z,31.23
2019-01-04T06:27:48.774Z,31.22
2019-01-04T06:28:24.911Z,31.18
2019-01-04T06:29:01.094Z,31.15
2019-01-04T06:29:37.192Z,31.13
2019-01-04T06:30:13.442Z,31.10
2019-01-04T06:30:49.821Z,31.10
2019-01-04T06:31:25.991Z,30.93
2019-01-04T06:32:03.854Z,30.87
2019-01-04T06:32:40.251Z,30.87
2019-01-04T06:33:18.062Z,30.71
2019-01-04T06:33:55.947Z,30.58
2019-01-04T06:34:32.291Z,30.50
2019-01-04T06:35:08.738Z,30.50
2019-01-04T06:35:45.134Z,30.25
2019-01-04T06:36:21.426Z,30.25
2019-01-04T06:36:57.831Z,30.20
2019-01-04T06:37:34.260Z,30.13
2019-01-04T06:38:10.673Z,30.09
2019-01-04T06:38:46.892Z,30.02
2019-01-04T06:39:23.062Z,30.02
2019-01-04T06:39:59.591Z,29.95
2019-01-04T06:40:35.705Z,29.96
2019-01-04T06:41:11.818Z,29.91
2019-01-04T06:41:47.918Z,29.88
2019-01-04T06:42:24.105Z,29.82
2019-01-04T06:43:00.363Z,29.85
2019-01-04T06:43:36.616Z,29.87
2019-01-04T06:44:12.987Z,29.83
2019-01-04T06:44:49.202Z,29.85
2019-01-04T06:45:26.909Z,29.85
2019-01-04T06:46:02.995Z,29.94
2019-01-04T06:47:13.439Z,29.94
2019-01-04T06:47:49.654Z,29.97
2019-01-04T06:48:25.963Z,30.00
2019-01-04T06:49:02.276Z,30.02
2019-01-04T06:49:38.404Z,30.03
2019-01-04T06:50:14.483Z,30.03
2019-01-04T06:50:52.449Z,30.08
2019-01-04T06:51:28.899Z,30.14
2019-01-04T06:52:05.091Z,30.14
2019-01-04T06:52:41.233Z,30.14
2019-01-04T06:53:17.368Z,30.12
2019-01-04T06:53:55.077Z,30.19
2019-01-04T06:55:05.965Z,30.23
2019-01-04T06:55:56.868Z,30.23
2019-01-04T06:56:33.038Z,30.25
2019-01-04T06:57:09.148Z,30.18
2019-01-04T06:57:45.372Z,30.29
2019-01-04T06:58:21.594Z,30.31
2019-01-04T06:58:57.898Z,30.31
2019-01-04T06:59:34.343Z,30.33
2019-01-04T07:00:11.831Z,30.34
2019-01-04T07:00:48.121Z,30.30
2019-01-04T07:01:25.958Z,30.36
2019-01-04T07:02:02.344Z,30.35
2019-01-04T07:02:38.505Z,30.35
2019-01-04T07:03:15.038Z,30.44
2019-01-04T07:03:51.557Z,30.44
2019-01-04T07:04:27.848Z,30.51
2019-01-04T07:05:04.170Z,30.51
2019-01-04T07:05:40.825Z,30.57
2019-01-04T07:06:17.293Z,30.61
2019-01-04T07:06:53.582Z,30.64
2019-01-04T07:07:29.884Z,30.64
2019-01-04T07:08:06.329Z,30.67
2019-01-04T07:08:42.639Z,30.72
2019-01-04T07:09:18.860Z,30.73
2019-01-04T07:09:55.077Z,30.78
2019-01-04T07:10:31.430Z,30.78
2019-01-04T07:11:07.742Z,30.83
2019-01-04T07:11:44.262Z,30.91
2019-01-04T07:12:20.385Z,30.90
2019-01-04T07:12:58.104Z,30.93
2019-01-04T07:13:34.211Z,30.94
2019-01-04T07:14:10.368Z,31.02
2019-01-04T07:14:46.558Z,30.99
2019-01-04T07:15:22.811Z,30.99
2019-01-04T07:15:58.949Z,30.99
2019-01-04T07:16:35.306Z,30.98
2019-01-04T07:17:11.660Z,30.98
2019-01-04T07:17:47.821Z,31.05
2019-01-04T07:18:24.365Z,31.07
2019-01-04T07:19:00.537Z,31.15
2019-01-04T07:19:36.944Z,31.15
2019-01-04T07:20:13.469Z,31.17
2019-01-04T07:20:49.724Z,31.17
2019-01-04T07:21:26.235Z,31.26
2019-01-04T07:22:02.322Z,31.21
2019-01-04T07:22:38.459Z,31.21
2019-01-04T07:23:14.558Z,31.25
2019-01-04T07:23:50.920Z,31.28
2019-01-04T07:24:27.021Z,31.28
2019-01-04T07:25:03.265Z,31.29
2019-01-04T07:25:39.404Z,31.35
2019-01-04T07:26:15.792Z,31.35
2019-01-04T07:26:52.179Z,31.41
2019-01-04T07:27:28.443Z,31.44
2019-01-04T07:28:04.660Z,31.47
2019-01-04T07:28:40.924Z,31.50
2019-01-04T07:29:17.331Z,31.51
2019-01-04T07:29:53.623Z,31.55
2019-01-04T07:30:29.955Z,31.55
2019-01-04T07:31:06.210Z,31.57
2019-01-04T07:31:42.569Z,31.63
2019-01-04T07:32:18.769Z,31.62
2019-01-04T07:32:55.104Z,31.64
2019-01-04T07:33:31.362Z,31.64
2019-01-04T07:34:07.770Z,31.64
2019-01-04T07:34:43.866Z,31.66
2019-01-04T07:35:19.879Z,31.71
2019-01-04T07:35:56.207Z,31.72
2019-01-04T07:36:33.943Z,31.74
2019-01-04T07:37:10.592Z,31.74
2019-01-04T07:37:46.745Z,31.79
2019-01-04T07:38:22.920Z,31.81
2019-01-04T07:38:59.250Z,31.80
2019-01-04T07:39:35.469Z,31.79
2019-01-04T07:40:11.755Z,31.84
2019-01-04T07:40:47.930Z,31.84
2019-01-04T07:41:24.300Z,31.87
2019-01-04T07:42:00.450Z,31.90
2019-01-04T07:42:36.807Z,31.94
2019-01-04T07:43:16.472Z,31.96
2019-01-04T07:43:51.138Z,31.96
2019-01-04T07:44:27.412Z,31.96
2019-01-04T07:45:03.685Z,31.96
2019-01-04T07:45:39.930Z,31.96
2019-01-04T07:46:16.317Z,31.99
2019-01-04T07:46:52.564Z,32.02
2019-01-04T07:47:28.699Z,32.05
2019-01-04T07:48:04.895Z,31.99
2019-01-04T07:48:41.177Z,32.03
2019-01-04T07:49:17.597Z,32.06
2019-01-04T07:49:53.723Z,32.06
2019-01-04T07:50:29.872Z,32.08
2019-01-04T07:51:06.056Z,32.12
2019-01-04T07:51:42.394Z,32.08
2019-01-04T07:52:18.653Z,32.13
2019-01-04T07:52:54.763Z,32.15
2019-01-04T07:53:30.900Z,32.17
2019-01-04T07:54:07.022Z,32.20
2019-01-04T07:54:43.096Z,32.21
2019-01-04T07:55:19.213Z,32.21
2019-01-04T07:55:55.499Z,32.22
2019-01-04T07:56:31.863Z,32.21
2019-01-04T07:57:08.002Z,32.20
2019-01-04T07:57:44.118Z,32.20
2019-01-04T07:58:20.266Z,32.16
2019-01-04T07:58:56.642Z,32.17
2019-01-04T07:59:32.771Z,32.13
2019-01-04T08:00:11.966Z,32.14
2019-01-04T08:00:48.263Z,32.14
2019-01-04T08:01:25.962Z,32.14
2019-01-04T08:02:20.877Z,32.12
2019-01-04T08:02:59.407Z,32.12
2019-01-04T08:03:35.540Z,32.09
2019-01-04T08:04:11.638Z,32.08
2019-01-04T08:04:47.715Z,32.04
2019-01-04T08:05:30.385Z,32.05
2019-01-04T08:06:06.711Z,32.05
2019-01-04T08:06:44.450Z,32.07
2019-01-04T08:07:20.820Z,32.08
2019-01-04T08:07:57.446Z,32.08
2019-01-04T08:08:33.543Z,32.06
2019-01-04T08:09:09.851Z,32.06
2019-01-04T08:09:46.183Z,32.05
2019-01-04T08:10:22.316Z,32.03
2019-01-04T08:11:00.020Z,32.05
2019-01-04T08:11:36.168Z,32.05
2019-01-04T08:12:12.459Z,32.07
2019-01-04T08:12:48.634Z,32.06
2019-01-04T08:13:24.905Z,32.08
2019-01-04T08:14:00.963Z,32.07
2019-01-04T08:14:37.265Z,32.08
2019-01-04T08:15:13.555Z,32.09
2019-01-04T08:15:49.706Z,32.09
2019-01-04T08:16:26.046Z,32.08
2019-01-04T08:17:02.194Z,32.08
2019-01-04T08:17:38.399Z,32.06
2019-01-04T08:18:14.630Z,32.07
2019-01-04T08:18:50.795Z,32.06
2019-01-04T08:19:26.907Z,32.05
2019-01-04T08:20:04.580Z,32.05
2019-01-04T08:20:40.712Z,32.05
2019-01-04T08:21:16.878Z,32.02